Time;durP1;ratioP1;P1;durP2;ratioP2;P2;SDS_P1;SDS_P2;PMS_P1;PMS_P2;Temp;Humidity;BMP_temperature;BMP_pressure;BME280_temperature;BME280_humidity;BME280_pressure;Samples;Min_cycle;Max_cycle;Signal;HPM_P1;HPM_P2
2024/03/20 00:02:19;;;;;;;28.20;26.20;;;;;;;;;;5054646;28;20445;-77
2024/03/20 00:04:46;;;;;;;29.50;27.10;;;;;;;;;;5054895;28;20771;-78
2024/03/20 00:07:12;;;;;;;29.37;27.27;;;;;;;;;;5054306;28;20424;-77
2024/03/20 00:09:39;;;;;;;28.70;26.63;;;;;;;;;;5054697;28;20862;-78
2024/03/20 00:12:08;;;;;;;29.10;26.90;;;;;;;;;;5054903;28;20452;-78
2024/03/20 00:14:36;;;;;;;30.10;27.67;;;;;;;;;;5054010;28;20987;-77
2024/03/20 00:17:03;;;;;;;27.53;25.63;;;;;;;;;;5053006;28;20454;-77
2024/03/20 00:19:30;;;;;;;28.57;26.40;;;;;;;;;;5053256;28;20467;-79
2024/03/20 00:21:57;;;;;;;29.70;27.00;;;;;;;;;;5053046;28;20836;-77
2024/03/20 00:24:24;;;;;;;28.63;26.50;;;;;;;;;;5053521;28;20448;-77
2024/03/20 00:26:51;;;;;;;32.13;29.53;;;;;;;;;;5052841;28;20763;-76
2024/03/20 00:29:19;;;;;;;29.90;27.47;;;;;;;;;;5052924;28;20432;-78
2024/03/20 00:31:46;;;;;;;29.87;27.37;;;;;;;;;;5053548;28;20440;-78
2024/03/20 00:34:13;;;;;;;29.13;26.87;;;;;;;;;;5053118;28;20446;-77
2024/03/20 00:36:41;;;;;;;29.90;27.63;;;;;;;;;;5052729;28;20453;-77
2024/03/20 00:39:08;;;;;;;29.37;27.17;;;;;;;;;;5053121;28;20981;-77
2024/03/20 00:41:35;;;;;;;28.70;26.53;;;;;;;;;;5053144;28;20460;-77
2024/03/20 00:44:02;;;;;;;29.30;27.03;;;;;;;;;;5053489;28;20425;-78
2024/03/20 00:46:31;;;;;;;29.00;26.70;;;;;;;;;;5059048;28;20423;-80
2024/03/20 00:48:58;;;;;;;30.03;27.37;;;;;;;;;;5061989;28;20510;-80
2024/03/20 00:51:25;;;;;;;29.13;26.70;;;;;;;;;;5039242;28;20539;-77
2024/03/20 00:53:52;;;;;;;30.87;28.50;;;;;;;;;;5033553;28;20457;-77
2024/03/20 00:56:19;;;;;;;28.83;26.43;;;;;;;;;;5032039;28;20540;-77
2024/03/20 00:58:46;;;;;;;30.83;28.10;;;;;;;;;;5033203;28;20462;-77
2024/03/20 01:01:14;;;;;;;28.87;26.60;;;;;;;;;;5050807;28;20456;-77
2024/03/20 01:03:42;;;;;;;31.20;28.63;;;;;;;;;;5052795;28;20504;-77
2024/03/20 01:06:09;;;;;;;28.60;26.40;;;;;;;;;;5045268;28;20458;-77
2024/03/20 01:08:39;;;;;;;29.67;27.27;;;;;;;;;;5032832;28;20938;-77
2024/03/20 01:11:06;;;;;;;28.80;26.70;;;;;;;;;;5032779;28;20513;-78
2024/03/20 01:13:33;;;;;;;28.77;26.13;;;;;;;;;;5032629;28;20511;-78
2024/03/20 01:16:00;;;;;;;30.20;27.77;;;;;;;;;;5038664;28;20533;-77
2024/03/20 01:18:27;;;;;;;29.00;26.90;;;;;;;;;;5052690;28;20475;-78
2024/03/20 01:20:56;;;;;;;29.97;27.50;;;;;;;;;;5052082;28;21059;-77
2024/03/20 01:23:23;;;;;;;27.27;25.33;;;;;;;;;;5052401;28;20769;-78
2024/03/20 01:25:50;;;;;;;29.03;26.80;;;;;;;;;;5052498;28;20847;-78
2024/03/20 01:28:17;;;;;;;27.90;25.77;;;;;;;;;;5052693;28;20479;-79
2024/03/20 01:30:44;;;;;;;28.33;26.20;;;;;;;;;;5052559;28;20523;-78
2024/03/20 01:33:11;;;;;;;30.37;27.80;;;;;;;;;;5052103;28;20510;-77
2024/03/20 01:35:38;;;;;;;28.47;26.27;;;;;;;;;;5052066;28;20484;-78
2024/03/20 01:38:07;;;;;;;29.40;27.30;;;;;;;;;;5051808;28;20510;-77
2024/03/20 01:40:34;;;;;;;31.20;28.60;;;;;;;;;;5051598;28;20530;-77
2024/03/20 01:43:01;;;;;;;30.13;27.83;;;;;;;;;;5051961;28;20827;-77
2024/03/20 01:45:28;;;;;;;28.30;26.13;;;;;;;;;;5051359;28;20469;-78
2024/03/20 01:47:55;;;;;;;28.87;26.60;;;;;;;;;;5051146;28;20481;-77
2024/03/20 01:50:22;;;;;;;29.90;27.40;;;;;;;;;;5051738;28;20469;-78
2024/03/20 01:52:50;;;;;;;29.57;27.30;;;;;;;;;;5052069;28;20458;-78
2024/03/20 01:55:19;;;;;;;28.00;26.00;;;;;;;;;;5051612;28;20465;-77
2024/03/20 01:57:46;;;;;;;28.07;26.13;;;;;;;;;;5051285;28;20468;-77
2024/03/20 02:00:14;;;;;;;28.00;25.90;;;;;;;;;;5051548;28;21109;-77
2024/03/20 02:02:42;;;;;;;30.23;27.63;;;;;;;;;;5051900;28;20464;-77
2024/03/20 02:05:09;;;;;;;27.27;25.37;;;;;;;;;;5051876;28;20444;-77
2024/03/20 02:07:36;;;;;;;28.77;26.57;;;;;;;;;;5049970;28;20449;-78
2024/03/20 02:10:03;;;;;;;28.13;25.90;;;;;;;;;;5051298;28;20492;-77
2024/03/20 02:12:31;;;;;;;27.13;25.30;;;;;;;;;;5051579;28;20448;-78
2024/03/20 02:14:59;;;;;;;29.23;27.13;;;;;;;;;;5051068;28;20520;-77
2024/03/20 02:17:26;;;;;;;28.73;26.63;;;;;;;;;;5051010;28;20431;-77
2024/03/20 02:19:53;;;;;;;29.00;26.90;;;;;;;;;;5051013;28;20528;-77
2024/03/20 02:22:21;;;;;;;28.70;26.50;;;;;;;;;;5051269;28;20413;-77
2024/03/20 02:24:48;;;;;;;27.40;25.17;;;;;;;;;;5051175;28;20427;-77
2024/03/20 02:27:15;;;;;;;28.80;26.80;;;;;;;;;;5050738;28;20428;-77
2024/03/20 02:29:42;;;;;;;29.60;27.30;;;;;;;;;;5050617;28;20493;-78
2024/03/20 02:32:10;;;;;;;28.17;26.00;;;;;;;;;;5051982;28;20827;-78
2024/03/20 02:34:36;;;;;;;27.10;25.10;;;;;;;;;;5050972;28;20449;-77
2024/03/20 02:37:03;;;;;;;27.27;25.20;;;;;;;;;;5050076;28;20918;-77
2024/03/20 02:39:32;;;;;;;27.80;25.73;;;;;;;;;;5050600;28;20473;-77
2024/03/20 02:41:59;;;;;;;28.23;26.13;;;;;;;;;;5050435;28;20429;-76
2024/03/20 02:44:26;;;;;;;27.53;25.40;;;;;;;;;;5050771;28;20488;-77
2024/03/20 02:46:53;;;;;;;28.17;25.83;;;;;;;;;;5050233;28;20449;-76
2024/03/20 02:49:20;;;;;;;26.90;24.87;;;;;;;;;;5050605;28;20460;-76
2024/03/20 02:51:47;;;;;;;29.00;26.67;;;;;;;;;;5050413;28;20446;-78
2024/03/20 02:54:14;;;;;;;27.50;25.30;;;;;;;;;;5050973;28;20440;-77
2024/03/20 02:56:42;;;;;;;27.97;25.50;;;;;;;;;;5050318;28;20484;-77
2024/03/20 02:59:09;;;;;;;27.50;25.43;;;;;;;;;;5050891;28;20473;-77
2024/03/20 03:01:36;;;;;;;26.27;24.27;;;;;;;;;;5049459;28;20477;-78
2024/03/20 03:04:03;;;;;;;26.03;24.20;;;;;;;;;;5032288;28;20453;-78
2024/03/20 03:06:30;;;;;;;27.93;25.83;;;;;;;;;;5046210;28;20554;-78
2024/03/20 03:08:58;;;;;;;27.07;24.83;;;;;;;;;;5030587;28;20489;-77
2024/03/20 03:11:25;;;;;;;27.00;25.07;;;;;;;;;;5030729;28;20757;-77
2024/03/20 03:13:53;;;;;;;27.77;25.57;;;;;;;;;;5030188;28;20890;-78
2024/03/20 03:16:20;;;;;;;27.40;25.40;;;;;;;;;;5029621;28;20463;-77
2024/03/20 03:18:47;;;;;;;28.03;25.97;;;;;;;;;;5030888;28;20533;-79
2024/03/20 03:21:14;;;;;;;26.67;24.97;;;;;;;;;;5050149;28;20447;-77
2024/03/20 03:23:41;;;;;;;28.10;25.90;;;;;;;;;;5050416;28;20450;-78
2024/03/20 03:26:08;;;;;;;29.27;26.77;;;;;;;;;;5049845;28;20448;-77
2024/03/20 03:28:34;;;;;;;29.37;26.87;;;;;;;;;;5050545;28;20434;-77
2024/03/20 03:31:03;;;;;;;28.27;26.20;;;;;;;;;;5049595;28;20457;-76
2024/03/20 03:33:30;;;;;;;27.87;25.93;;;;;;;;;;5050163;28;20445;-77
2024/03/20 03:36:04;;;;;;;27.47;25.47;;;;;;;;;;5049817;28;20863;-78
2024/03/20 03:38:31;;;;;;;27.70;25.80;;;;;;;;;;5050348;28;20491;-77
2024/03/20 03:41:01;;;;;;;27.27;25.37;;;;;;;;;;5050353;28;20492;-77
2024/03/20 03:43:28;;;;;;;27.00;24.90;;;;;;;;;;5050129;28;20424;-78
2024/03/20 03:45:55;;;;;;;27.70;25.50;;;;;;;;;;5049633;28;20511;-77
2024/03/20 03:48:24;;;;;;;27.17;25.27;;;;;;;;;;5050320;28;20458;-78
2024/03/20 03:50:52;;;;;;;28.17;25.80;;;;;;;;;;5050036;28;20464;-77
2024/03/20 03:53:19;;;;;;;28.10;25.90;;;;;;;;;;5049874;28;20489;-78
2024/03/20 03:55:46;;;;;;;26.80;24.87;;;;;;;;;;5049527;28;20491;-77
2024/03/20 03:58:13;;;;;;;26.70;24.80;;;;;;;;;;5049780;28;20460;-78
2024/03/20 04:00:40;;;;;;;27.53;25.43;;;;;;;;;;5049147;28;20544;-77
2024/03/20 04:03:07;;;;;;;26.30;24.40;;;;;;;;;;5049973;28;20453;-77
2024/03/20 04:05:35;;;;;;;27.47;25.40;;;;;;;;;;5050096;28;20907;-78
2024/03/20 04:08:03;;;;;;;25.70;23.83;;;;;;;;;;5049752;28;20452;-78
2024/03/20 04:10:30;;;;;;;25.80;23.80;;;;;;;;;;5049375;28;20920;-77
2024/03/20 04:12:57;;;;;;;25.97;24.20;;;;;;;;;;5050007;28;20432;-78
2024/03/20 04:15:24;;;;;;;26.10;24.30;;;;;;;;;;5049775;28;20457;-77
2024/03/20 04:17:51;;;;;;;27.00;24.80;;;;;;;;;;5049094;28;20484;-77
2024/03/20 04:20:19;;;;;;;25.63;23.93;;;;;;;;;;5048910;28;20491;-77
2024/03/20 04:22:47;;;;;;;27.90;25.47;;;;;;;;;;5049673;28;20409;-78
2024/03/20 04:25:14;;;;;;;26.37;24.37;;;;;;;;;;5049972;28;20483;-77
2024/03/20 04:27:42;;;;;;;26.53;24.53;;;;;;;;;;5049196;28;20452;-78
2024/03/20 04:30:12;;;;;;;27.00;24.80;;;;;;;;;;5049476;28;20488;-77
2024/03/20 04:32:39;;;;;;;27.73;25.77;;;;;;;;;;5053147;28;20417;-77
2024/03/20 04:35:07;;;;;;;26.63;24.73;;;;;;;;;;5052616;28;20931;-77
2024/03/20 04:37:34;;;;;;;27.40;25.40;;;;;;;;;;5052517;28;20486;-77
2024/03/20 04:40:04;;;;;;;25.53;23.90;;;;;;;;;;5052951;28;20475;-78
2024/03/20 04:42:31;;;;;;;28.10;25.70;;;;;;;;;;5053411;28;20449;-77
2024/03/20 04:44:58;;;;;;;27.00;24.63;;;;;;;;;;5053137;28;20423;-77
2024/03/20 04:47:25;;;;;;;26.03;23.70;;;;;;;;;;5052192;28;20559;-77
2024/03/20 04:49:52;;;;;;;26.90;25.00;;;;;;;;;;5052606;28;20607;-77
2024/03/20 04:52:19;;;;;;;25.53;23.90;;;;;;;;;;5053099;28;20452;-77
2024/03/20 04:54:46;;;;;;;27.80;25.30;;;;;;;;;;5052698;28;20456;-77
2024/03/20 04:57:14;;;;;;;26.50;24.57;;;;;;;;;;5051929;28;20488;-78
2024/03/20 04:59:41;;;;;;;25.57;23.67;;;;;;;;;;5051904;28;20462;-78
2024/03/20 05:02:08;;;;;;;26.77;24.47;;;;;;;;;;5052482;28;20471;-77
2024/03/20 05:04:35;;;;;;;26.03;24.03;;;;;;;;;;5052365;28;20460;-77
2024/03/20 05:07:02;;;;;;;26.30;24.40;;;;;;;;;;5051653;28;20514;-77
2024/03/20 05:09:29;;;;;;;25.77;23.83;;;;;;;;;;5052021;28;20518;-77
2024/03/20 05:11:57;;;;;;;25.57;23.77;;;;;;;;;;5052467;28;20461;-77
2024/03/20 05:14:24;;;;;;;27.53;25.33;;;;;;;;;;5052303;28;20448;-76
2024/03/20 05:16:52;;;;;;;26.87;24.73;;;;;;;;;;5051798;28;20496;-77
2024/03/20 05:19:19;;;;;;;27.03;24.80;;;;;;;;;;5051865;28;20571;-77
2024/03/20 05:21:46;;;;;;;25.83;24.07;;;;;;;;;;5039082;28;20464;-78
2024/03/20 05:24:12;;;;;;;27.17;25.17;;;;;;;;;;5032132;28;20452;-77
2024/03/20 05:26:39;;;;;;;27.37;25.17;;;;;;;;;;5031819;28;20530;-78
2024/03/20 05:29:05;;;;;;;27.77;25.57;;;;;;;;;;5031990;28;20473;-77
2024/03/20 05:31:33;;;;;;;27.10;25.20;;;;;;;;;;5031746;28;20470;-77
2024/03/20 05:33:59;;;;;;;26.50;24.60;;;;;;;;;;5031938;28;20432;-77
2024/03/20 05:36:26;;;;;;;27.63;25.60;;;;;;;;;;5031291;28;20506;-77
2024/03/20 05:38:52;;;;;;;26.30;24.20;;;;;;;;;;5032151;28;20451;-77
2024/03/20 05:41:19;;;;;;;27.00;24.93;;;;;;;;;;5031618;28;20465;-78
2024/03/20 05:43:46;;;;;;;27.47;25.17;;;;;;;;;;5031795;28;20495;-76
2024/03/20 05:46:13;;;;;;;26.13;24.13;;;;;;;;;;5031269;28;20456;-77
2024/03/20 05:48:42;;;;;;;28.33;25.87;;;;;;;;;;5031723;28;20462;-77
2024/03/20 05:51:09;;;;;;;27.77;25.57;;;;;;;;;;5031665;28;20870;-78
2024/03/20 05:53:35;;;;;;;26.40;24.50;;;;;;;;;;5031612;28;20453;-77
2024/03/20 05:56:02;;;;;;;27.83;25.63;;;;;;;;;;5031193;28;20487;-77
2024/03/20 05:58:28;;;;;;;26.40;24.37;;;;;;;;;;5031500;28;20446;-79
2024/03/20 06:00:55;;;;;;;26.00;24.00;;;;;;;;;;5031604;28;20485;-77
2024/03/20 06:03:22;;;;;;;25.70;23.90;;;;;;;;;;5031490;28;20964;-76
2024/03/20 06:05:51;;;;;;;25.30;23.43;;;;;;;;;;5031102;28;20479;-77
2024/03/20 06:08:17;;;;;;;27.03;25.13;;;;;;;;;;5038201;28;20814;-79
2024/03/20 06:10:44;;;;;;;26.43;24.40;;;;;;;;;;5040391;28;20528;-79
2024/03/20 06:13:10;;;;;;;27.30;25.20;;;;;;;;;;5040169;28;20947;-80
2024/03/20 06:15:37;;;;;;;27.97;25.80;;;;;;;;;;5040107;28;20572;-79
2024/03/20 06:18:05;;;;;;;27.47;25.37;;;;;;;;;;5039607;28;20462;-79
2024/03/20 06:20:32;;;;;;;28.60;26.27;;;;;;;;;;5040115;28;20480;-78
2024/03/20 06:22:59;;;;;;;26.63;24.73;;;;;;;;;;5040162;28;20446;-79
2024/03/20 06:25:27;;;;;;;27.30;25.20;;;;;;;;;;5039794;28;20522;-79
2024/03/20 06:27:53;;;;;;;26.30;24.20;;;;;;;;;;5038611;28;20460;-79
2024/03/20 06:30:21;;;;;;;28.23;26.03;;;;;;;;;;5041471;28;20480;-78
2024/03/20 06:32:47;;;;;;;29.77;26.93;;;;;;;;;;5039272;28;20485;-78
2024/03/20 06:35:16;;;;;;;28.83;26.63;;;;;;;;;;5039602;28;20448;-79
2024/03/20 06:37:42;;;;;;;27.53;25.20;;;;;;;;;;5039126;28;20469;-79
2024/03/20 06:40:11;;;;;;;26.37;24.53;;;;;;;;;;5039885;28;20511;-78
2024/03/20 06:42:37;;;;;;;26.90;24.60;;;;;;;;;;5039113;28;20490;-78
2024/03/20 06:45:05;;;;;;;28.37;25.77;;;;;;;;;;5054056;28;20456;-79
2024/03/20 06:47:32;;;;;;;27.30;25.30;;;;;;;;;;5038198;28;20446;-79
2024/03/20 06:49:59;;;;;;;25.47;23.70;;;;;;;;;;5039700;28;20461;-78
2024/03/20 06:52:25;;;;;;;26.60;24.80;;;;;;;;;;5054280;28;20457;-79
2024/03/20 06:54:53;;;;;;;24.63;22.90;;;;;;;;;;5046376;28;20952;-78
2024/03/20 06:57:20;;;;;;;27.93;25.57;;;;;;;;;;5058896;28;20547;-78
2024/03/20 06:59:47;;;;;;;28.00;25.53;;;;;;;;;;5056615;28;20483;-79
2024/03/20 07:02:13;;;;;;;26.90;24.90;;;;;;;;;;5061680;28;20548;-79
2024/03/20 07:04:40;;;;;;;26.77;24.93;;;;;;;;;;5061035;28;20537;-79
2024/03/20 07:07:08;;;;;;;26.57;24.73;;;;;;;;;;5041292;28;20499;-78
2024/03/20 07:09:36;;;;;;;27.60;25.00;;;;;;;;;;5040805;28;20547;-80
2024/03/20 07:12:02;;;;;;;27.17;25.00;;;;;;;;;;5041810;28;20902;-79
2024/03/20 07:14:32;;;;;;;29.03;26.60;;;;;;;;;;5054835;28;20432;-79
2024/03/20 07:16:58;;;;;;;27.30;25.33;;;;;;;;;;5054874;28;20561;-79
2024/03/20 07:19:25;;;;;;;27.50;25.30;;;;;;;;;;5049228;28;20509;-80
2024/03/20 07:21:51;;;;;;;27.10;25.00;;;;;;;;;;5041204;28;20675;-80
2024/03/20 07:24:18;;;;;;;26.17;23.77;;;;;;;;;;5040643;28;20453;-80
2024/03/20 07:26:45;;;;;;;25.70;23.70;;;;;;;;;;5050233;28;20449;-79
2024/03/20 07:29:13;;;;;;;26.60;24.70;;;;;;;;;;5041083;28;20542;-80
2024/03/20 07:31:40;;;;;;;27.80;25.03;;;;;;;;;;5041063;28;20988;-80
2024/03/20 07:34:08;;;;;;;25.53;23.63;;;;;;;;;;5041115;28;20483;-80
2024/03/20 07:36:34;;;;;;;26.30;24.40;;;;;;;;;;5039743;28;20490;-79
2024/03/20 07:39:03;;;;;;;26.70;24.77;;;;;;;;;;5039540;28;20453;-80
2024/03/20 07:41:29;;;;;;;26.93;25.13;;;;;;;;;;5040780;28;20537;-79
2024/03/20 07:43:57;;;;;;;26.40;24.60;;;;;;;;;;5040140;28;20541;-79
2024/03/20 07:46:23;;;;;;;26.40;24.40;;;;;;;;;;5039624;28;21080;-79
2024/03/20 07:48:52;;;;;;;26.67;24.37;;;;;;;;;;5040223;28;20460;-78
2024/03/20 07:51:18;;;;;;;26.63;24.53;;;;;;;;;;5037572;28;20453;-79
2024/03/20 07:53:46;;;;;;;27.07;25.00;;;;;;;;;;5056592;28;20460;-79
2024/03/20 07:56:12;;;;;;;26.63;24.87;;;;;;;;;;5058577;28;20769;-79
2024/03/20 07:58:39;;;;;;;25.70;23.80;;;;;;;;;;5059870;28;20807;-78
2024/03/20 08:01:05;;;;;;;26.90;25.00;;;;;;;;;;5059229;28;20447;-80
2024/03/20 08:03:32;;;;;;;26.17;24.47;;;;;;;;;;5059457;28;20482;-79
2024/03/20 08:06:01;;;;;;;25.80;24.00;;;;;;;;;;5060747;28;20462;-83
2024/03/20 08:08:27;;;;;;;26.20;24.17;;;;;;;;;;5063233;28;20937;-80
2024/03/20 08:10:54;;;;;;;25.40;23.80;;;;;;;;;;5063094;28;20455;-79
2024/03/20 08:13:20;;;;;;;26.87;24.87;;;;;;;;;;5063594;28;20423;-79
2024/03/20 08:15:47;;;;;;;26.17;24.57;;;;;;;;;;5057587;28;20457;-80
2024/03/20 08:18:13;;;;;;;27.10;25.20;;;;;;;;;;5054036;28;20978;-79
2024/03/20 08:20:41;;;;;;;26.80;25.00;;;;;;;;;;5062233;28;20508;-80
2024/03/20 08:23:08;;;;;;;26.30;24.40;;;;;;;;;;5062876;28;20460;-81
2024/03/20 08:25:35;;;;;;;27.03;25.03;;;;;;;;;;5062643;28;20456;-81
2024/03/20 08:28:01;;;;;;;26.37;24.53;;;;;;;;;;5061692;28;20441;-82
2024/03/20 08:30:28;;;;;;;26.00;24.23;;;;;;;;;;5062422;28;20461;-81
2024/03/20 08:32:54;;;;;;;26.67;24.97;;;;;;;;;;5062161;28;20503;-80
2024/03/20 08:35:22;;;;;;;26.70;24.80;;;;;;;;;;5063953;28;20427;-80
2024/03/20 08:37:48;;;;;;;26.63;24.43;;;;;;;;;;5063752;28;20483;-80
2024/03/20 08:40:16;;;;;;;26.03;24.23;;;;;;;;;;5064402;28;20465;-79
2024/03/20 08:42:44;;;;;;;25.63;23.83;;;;;;;;;;5064549;28;20483;-78
2024/03/20 08:45:11;;;;;;;26.60;24.80;;;;;;;;;;5064073;28;20427;-79
2024/03/20 08:47:38;;;;;;;27.17;25.37;;;;;;;;;;5063738;28;20442;-79
2024/03/20 08:50:05;;;;;;;26.30;24.40;;;;;;;;;;5064323;28;20473;-79
2024/03/20 08:52:31;;;;;;;25.90;24.10;;;;;;;;;;5059906;28;20464;-79
2024/03/20 08:54:59;;;;;;;27.23;25.43;;;;;;;;;;5057045;28;20988;-80
2024/03/20 08:57:26;;;;;;;27.07;25.07;;;;;;;;;;5061496;28;20550;-79
2024/03/20 08:59:53;;;;;;;25.67;23.93;;;;;;;;;;5062656;28;20484;-80
2024/03/20 09:02:19;;;;;;;25.30;23.70;;;;;;;;;;5063709;28;20437;-80
2024/03/20 09:04:46;;;;;;;26.63;24.70;;;;;;;;;;5064139;28;20458;-80
2024/03/20 09:07:12;;;;;;;27.17;25.27;;;;;;;;;;5046333;28;20473;-79
2024/03/20 09:09:40;;;;;;;27.53;25.67;;;;;;;;;;5043172;28;20488;-79
2024/03/20 09:12:07;;;;;;;28.70;26.70;;;;;;;;;;5043011;28;20449;-80
2024/03/20 09:14:35;;;;;;;28.27;26.27;;;;;;;;;;5043624;28;20454;-79
2024/03/20 09:17:02;;;;;;;27.30;25.60;;;;;;;;;;5041853;28;20512;-80
2024/03/20 09:19:28;;;;;;;28.03;26.13;;;;;;;;;;5042447;28;20556;-79
2024/03/20 09:21:55;;;;;;;27.40;25.37;;;;;;;;;;5047694;28;20542;-80
2024/03/20 09:24:22;;;;;;;27.83;25.83;;;;;;;;;;5054647;28;20446;-80
2024/03/20 09:26:50;;;;;;;29.73;27.57;;;;;;;;;;5062590;28;20420;-80
2024/03/20 09:29:16;;;;;;;29.47;27.37;;;;;;;;;;5063353;28;20461;-81
2024/03/20 09:31:45;;;;;;;29.10;27.10;;;;;;;;;;5062819;28;20553;-80
2024/03/20 09:34:11;;;;;;;29.97;27.73;;;;;;;;;;5061995;28;20444;-79
2024/03/20 09:36:38;;;;;;;30.23;28.13;;;;;;;;;;5062432;28;20450;-80
2024/03/20 09:39:04;;;;;;;29.43;27.23;;;;;;;;;;5062593;28;20458;-80
2024/03/20 09:41:34;;;;;;;30.60;28.20;;;;;;;;;;5062656;28;20456;-79
2024/03/20 09:44:00;;;;;;;31.37;28.60;;;;;;;;;;5064246;28;20496;-80
2024/03/20 09:46:28;;;;;;;29.20;27.03;;;;;;;;;;5062825;28;20427;-79
2024/03/20 09:48:56;;;;;;;29.17;27.20;;;;;;;;;;5063589;28;20468;-80
2024/03/20 09:51:23;;;;;;;28.67;26.37;;;;;;;;;;5062391;28;20432;-80
2024/03/20 09:53:49;;;;;;;29.00;27.00;;;;;;;;;;5062392;28;20527;-80
2024/03/20 09:56:18;;;;;;;29.23;27.10;;;;;;;;;;5061868;28;20478;-79
2024/03/20 09:58:45;;;;;;;28.57;26.57;;;;;;;;;;5057571;28;20514;-79
2024/03/20 10:01:13;;;;;;;27.63;25.70;;;;;;;;;;5041408;28;20456;-80
2024/03/20 10:03:40;;;;;;;28.87;26.33;;;;;;;;;;5042147;28;20903;-80
2024/03/20 10:06:08;;;;;;;28.00;26.10;;;;;;;;;;5041866;28;20465;-79
2024/03/20 10:08:37;;;;;;;28.20;26.23;;;;;;;;;;5042958;28;20454;-82
2024/03/20 10:11:04;;;;;;;29.63;27.70;;;;;;;;;;5041584;28;20453;-78
2024/03/20 10:13:31;;;;;;;28.97;26.47;;;;;;;;;;5041292;28;20513;-79
2024/03/20 10:16:08;;;;;;;28.03;26.23;;;;;;;;;;5041473;28;20460;-80
2024/03/20 10:18:34;;;;;;;30.93;28.67;;;;;;;;;;5041607;28;21343;-80
2024/03/20 10:21:02;;;;;;;29.17;26.90;;;;;;;;;;5040604;28;20884;-80
2024/03/20 10:23:30;;;;;;;28.27;26.03;;;;;;;;;;5042116;28;20481;-81
2024/03/20 10:26:00;;;;;;;28.33;26.23;;;;;;;;;;5041411;28;20466;-80
2024/03/20 10:28:29;;;;;;;29.43;27.50;;;;;;;;;;5049547;28;20461;-80
2024/03/20 10:31:00;;;;;;;29.00;26.27;;;;;;;;;;5040719;28;20474;-79
2024/03/20 10:33:27;;;;;;;29.30;26.90;;;;;;;;;;5042036;28;20556;-80
2024/03/20 10:35:54;;;;;;;29.17;26.90;;;;;;;;;;5040965;28;20454;-80
2024/03/20 10:38:20;;;;;;;29.53;27.50;;;;;;;;;;5041508;28;20897;-80
2024/03/20 10:40:50;;;;;;;29.00;27.00;;;;;;;;;;5039194;28;20461;-79
2024/03/20 10:43:18;;;;;;;29.67;27.67;;;;;;;;;;5041885;28;20424;-80
2024/03/20 10:45:46;;;;;;;28.60;26.63;;;;;;;;;;5040432;28;20470;-81
2024/03/20 10:48:15;;;;;;;28.80;26.60;;;;;;;;;;5041157;28;20426;-80
2024/03/20 10:50:43;;;;;;;27.43;25.53;;;;;;;;;;5042911;28;20466;-80
2024/03/20 10:53:09;;;;;;;29.60;27.50;;;;;;;;;;5061119;28;20454;-81
2024/03/20 10:55:37;;;;;;;29.03;26.77;;;;;;;;;;5061299;28;20427;-80
2024/03/20 10:58:05;;;;;;;29.03;27.03;;;;;;;;;;5059932;28;20543;-80
2024/03/20 11:00:32;;;;;;;28.77;26.33;;;;;;;;;;5061237;28;20477;-80
2024/03/20 11:02:58;;;;;;;28.80;26.77;;;;;;;;;;5061454;28;20809;-81
2024/03/20 11:05:38;;;;;;;29.50;27.30;;;;;;;;;;5061706;28;20547;-80
2024/03/20 11:08:07;;;;;;;29.67;27.23;;;;;;;;;;5060966;28;20458;-80
2024/03/20 11:10:34;;;;;;;27.73;25.93;;;;;;;;;;5052816;28;20481;-80
2024/03/20 11:13:00;;;;;;;28.40;26.40;;;;;;;;;;5061134;28;20430;-80
2024/03/20 11:15:30;;;;;;;29.67;27.37;;;;;;;;;;5060642;28;20460;-80
2024/03/20 11:17:58;;;;;;;29.27;27.07;;;;;;;;;;5060894;28;20508;-80
2024/03/20 11:20:45;;;;;;;28.73;26.73;;;;;;;;;;5060877;28;20931;-82
2024/03/20 11:23:21;;;;;;;28.20;26.00;;;;;;;;;;5060920;28;20541;-80
2024/03/20 11:25:48;;;;;;;28.90;27.10;;;;;;;;;;5054688;28;20470;-81
2024/03/20 11:28:14;;;;;;;29.47;27.07;;;;;;;;;;5060446;28;20446;-80
2024/03/20 11:30:43;;;;;;;27.57;25.47;;;;;;;;;;5061096;28;20533;-81
2024/03/20 11:33:09;;;;;;;28.50;26.43;;;;;;;;;;5058586;28;20480;-83
2024/03/20 11:35:36;;;;;;;29.77;27.47;;;;;;;;;;5056980;28;21005;-83
2024/03/20 11:38:04;;;;;;;30.13;28.07;;;;;;;;;;5056355;28;20493;-84
2024/03/20 11:40:31;;;;;;;30.53;28.40;;;;;;;;;;5064753;28;21000;-84
2024/03/20 11:42:57;;;;;;;31.37;28.90;;;;;;;;;;5061901;28;20528;-87
2024/03/20 11:45:24;;;;;;;29.80;27.80;;;;;;;;;;5061937;28;20500;-81
2024/03/20 11:47:51;;;;;;;29.60;27.10;;;;;;;;;;5061578;28;20931;-81
2024/03/20 11:50:18;;;;;;;30.47;28.37;;;;;;;;;;5062514;28;21224;-83
2024/03/20 11:52:45;;;;;;;30.20;27.83;;;;;;;;;;5048807;28;20933;-82
2024/03/20 11:55:12;;;;;;;28.80;26.90;;;;;;;;;;5038436;28;20510;-85
2024/03/20 11:57:40;;;;;;;31.37;29.17;;;;;;;;;;5059944;28;21016;-81
2024/03/20 12:00:11;;;;;;;29.97;27.87;;;;;;;;;;5062460;28;20883;-84
2024/03/20 12:02:37;;;;;;;29.60;27.50;;;;;;;;;;5038167;28;20443;-84
2024/03/20 12:05:08;;;;;;;29.23;27.23;;;;;;;;;;5042350;28;20455;-84
2024/03/20 12:07:36;;;;;;;30.33;28.07;;;;;;;;;;5041905;28;20420;-81
2024/03/20 12:10:03;;;;;;;31.43;29.33;;;;;;;;;;5060310;28;21018;-81
2024/03/20 12:12:29;;;;;;;31.33;29.07;;;;;;;;;;5083960;28;20480;-79
2024/03/20 12:14:59;;;;;;;31.03;28.83;;;;;;;;;;5080336;28;20949;-84
2024/03/20 12:17:26;;;;;;;31.60;28.93;;;;;;;;;;5076937;28;20505;-81
2024/03/20 12:19:53;;;;;;;31.43;29.03;;;;;;;;;;5062699;28;20467;-80
2024/03/20 12:22:21;;;;;;;30.53;28.23;;;;;;;;;;5062802;28;20447;-81
2024/03/20 12:24:48;;;;;;;31.17;28.90;;;;;;;;;;5063873;28;20474;-81
2024/03/20 12:27:15;;;;;;;30.23;27.93;;;;;;;;;;5064208;28;20445;-81
2024/03/20 12:29:43;;;;;;;31.23;28.93;;;;;;;;;;5064272;28;21053;-81
2024/03/20 12:32:10;;;;;;;30.53;28.43;;;;;;;;;;5063970;28;20529;-81
2024/03/20 12:34:39;;;;;;;30.23;28.23;;;;;;;;;;5064054;28;20961;-81
2024/03/20 12:37:09;;;;;;;29.47;27.30;;;;;;;;;;5062989;28;20852;-80
2024/03/20 12:39:37;;;;;;;30.90;28.60;;;;;;;;;;5063974;28;20474;-81
2024/03/20 12:42:04;;;;;;;28.80;27.00;;;;;;;;;;5064229;28;20437;-81
2024/03/20 12:44:31;;;;;;;30.93;28.63;;;;;;;;;;5064777;28;20439;-81
2024/03/20 12:46:57;;;;;;;31.07;28.77;;;;;;;;;;5062944;28;20557;-81
2024/03/20 12:49:24;;;;;;;30.87;28.63;;;;;;;;;;5060517;28;20481;-81
2024/03/20 12:51:50;;;;;;;30.73;28.73;;;;;;;;;;5052699;28;20493;-82
2024/03/20 12:54:17;;;;;;;29.43;27.17;;;;;;;;;;5043309;28;20938;-81
2024/03/20 12:56:44;;;;;;;30.40;28.03;;;;;;;;;;5042111;28;20417;-80
2024/03/20 12:59:13;;;;;;;31.10;28.57;;;;;;;;;;5042565;28;20530;-82
2024/03/20 13:01:40;;;;;;;30.50;28.30;;;;;;;;;;5042659;28;20704;-81
2024/03/20 13:04:07;;;;;;;28.13;26.00;;;;;;;;;;5043771;28;20806;-81
2024/03/20 13:06:34;;;;;;;31.17;28.60;;;;;;;;;;5060148;28;20446;-81
2024/03/20 13:09:01;;;;;;;29.70;27.70;;;;;;;;;;5062599;28;20442;-81
2024/03/20 13:11:27;;;;;;;29.33;27.33;;;;;;;;;;5055371;28;20462;-81
2024/03/20 13:13:56;;;;;;;32.07;29.77;;;;;;;;;;5050288;28;20458;-82
2024/03/20 13:16:22;;;;;;;30.83;28.63;;;;;;;;;;5054428;28;20480;-81
2024/03/20 13:18:54;;;;;;;29.40;27.50;;;;;;;;;;5050767;28;20495;-80
2024/03/20 13:21:24;;;;;;;31.90;29.80;;;;;;;;;;5042728;28;20462;-81
2024/03/20 13:23:59;;;;;;;31.97;29.57;;;;;;;;;;5043546;28;20444;-81
2024/03/20 13:26:26;;;;;;;30.67;28.57;;;;;;;;;;5044070;28;20449;-80
2024/03/20 13:28:54;;;;;;;31.27;29.20;;;;;;;;;;5061672;28;20534;-81
2024/03/20 13:31:21;;;;;;;31.57;29.37;;;;;;;;;;5047899;28;20465;-80
2024/03/20 13:33:47;;;;;;;30.97;28.80;;;;;;;;;;5060185;28;20465;-81
2024/03/20 13:36:18;;;;;;;31.47;29.17;;;;;;;;;;5052200;28;20524;-81
2024/03/20 13:38:44;;;;;;;32.03;29.70;;;;;;;;;;5049405;28;20480;-80
2024/03/20 13:41:35;;;;;;;30.00;28.10;;;;;;;;;;5048022;28;20456;-81
2024/03/20 13:44:05;;;;;;;30.03;27.80;;;;;;;;;;5062147;28;20458;-81
2024/03/20 13:46:33;;;;;;;29.37;27.27;;;;;;;;;;5061426;28;20453;-81
2024/03/20 13:48:59;;;;;;;28.80;26.73;;;;;;;;;;5042095;28;20517;-80
2024/03/20 13:51:26;;;;;;;29.60;27.23;;;;;;;;;;5045511;28;20517;-80
2024/03/20 13:53:52;;;;;;;30.13;27.93;;;;;;;;;;5044112;28;20461;-81
2024/03/20 13:56:20;;;;;;;32.40;29.90;;;;;;;;;;5040381;28;20453;-80
2024/03/20 13:58:46;;;;;;;31.67;29.17;;;;;;;;;;5040888;28;20490;-80
2024/03/20 14:01:16;;;;;;;30.50;28.30;;;;;;;;;;5044550;28;20555;-86
2024/03/20 14:03:43;;;;;;;31.20;29.10;;;;;;;;;;5053332;28;20428;-86
2024/03/20 14:06:12;;;;;;;30.23;28.03;;;;;;;;;;5056398;28;20456;-86
2024/03/20 14:08:38;;;;;;;29.40;27.07;;;;;;;;;;5057376;28;20457;-89
2024/03/20 14:11:06;;;;;;;30.03;27.73;;;;;;;;;;5057814;28;20468;-83
2024/03/20 14:13:32;;;;;;;28.83;26.83;;;;;;;;;;5053300;28;20473;-88
2024/03/20 14:15:59;;;;;;;29.20;27.03;;;;;;;;;;5053793;28;20490;-79
2024/03/20 14:18:26;;;;;;;30.80;28.60;;;;;;;;;;5036745;28;21057;-80